Time;durP1;ratioP1;P1;durP2;ratioP2;P2;SDS_P1;SDS_P2;PMS_P1;PMS_P2;Temp;Humidity;BMP_temperature;BMP_pressure;BME280_temperature;BME280_humidity;BME280_pressure;Samples;Min_cycle;Max_cycle;Signal;HPM_P1;HPM_P2
2022/07/07 00:02:09;;;;;;;1.98;0.98;;;15.50;99.90;;;;;;4955851;28;20130;-77
2022/07/07 00:04:35;;;;;;;1.15;0.75;;;15.40;99.90;;;;;;4958207;28;20023;-77
2022/07/07 00:07:00;;;;;;;1.23;0.73;;;15.40;99.90;;;;;;4949465;28;20038;-77
2022/07/07 00:09:27;;;;;;;1.23;0.60;;;15.40;99.90;;;;;;4956207;28;20034;-77
2022/07/07 00:11:53;;;;;;;0.52;0.50;;;15.40;99.90;;;;;;4959820;28;20027;-77
2022/07/07 00:14:20;;;;;;;0.88;0.60;;;15.50;99.90;;;;;;4959394;28;20049;-78
2022/07/07 00:16:46;;;;;;;3.08;0.47;;;15.50;99.90;;;;;;4958056;28;20027;-76
2022/07/07 00:19:12;;;;;;;1.27;0.85;;;15.50;99.90;;;;;;4942830;28;20102;-77
2022/07/07 00:21:37;;;;;;;0.90;0.40;;;15.40;99.90;;;;;;4930953;28;20031;-77
2022/07/07 00:24:03;;;;;;;1.25;0.55;;;15.50;99.90;;;;;;4956901;28;20451;-77
2022/07/07 00:26:31;;;;;;;0.63;0.40;;;15.50;99.90;;;;;;4955982;28;20116;-77
2022/07/07 00:28:57;;;;;;;0.47;0.30;;;15.50;99.90;;;;;;4959065;28;20293;-77
2022/07/07 00:31:23;;;;;;;0.82;0.65;;;15.50;99.90;;;;;;4957421;28;20143;-77
2022/07/07 00:33:48;;;;;;;1.45;0.50;;;15.50;99.90;;;;;;4960088;28;20042;-77
2022/07/07 00:36:14;;;;;;;1.08;0.60;;;15.40;99.90;;;;;;4958878;28;20033;-77
2022/07/07 00:38:40;;;;;;;1.00;0.40;;;15.40;99.90;;;;;;4960337;28;20041;-77
2022/07/07 00:41:06;;;;;;;0.88;0.40;;;15.40;99.90;;;;;;4957682;28;20026;-77
2022/07/07 00:43:40;;;;;;;1.13;0.40;;;15.30;99.90;;;;;;4949203;28;20035;-77
2022/07/07 00:46:07;;;;;;;1.38;0.40;;;15.20;99.90;;;;;;4940889;28;20042;-77
2022/07/07 00:48:35;;;;;;;0.60;0.40;;;15.20;99.90;;;;;;4958651;28;20679;-77
2022/07/07 00:51:03;;;;;;;0.30;0.30;;;15.20;99.90;;;;;;4940530;28;20129;-78
2022/07/07 00:53:29;;;;;;;0.98;0.32;;;15.10;99.90;;;;;;4934066;28;20039;-77
2022/07/07 00:55:55;;;;;;;2.35;0.50;;;15.00;99.90;;;;;;4933013;28;20454;-77
2022/07/07 00:58:21;;;;;;;0.85;0.43;;;15.00;99.90;;;;;;4958472;28;20113;-78
2022/07/07 01:00:48;;;;;;;0.38;0.32;;;14.90;99.90;;;;;;4958572;28;20026;-77
2022/07/07 01:03:13;;;;;;;0.50;0.50;;;14.90;99.90;;;;;;4954189;28;20058;-77
2022/07/07 01:05:41;;;;;;;0.95;0.50;;;14.90;99.90;;;;;;4956431;28;20134;-77
2022/07/07 01:08:09;;;;;;;1.00;0.38;;;14.80;99.90;;;;;;4956579;28;20423;-77
2022/07/07 01:10:35;;;;;;;1.27;0.40;;;14.80;99.90;;;;;;4954288;28;20326;-77
2022/07/07 01:13:03;;;;;;;0.57;0.57;;;14.80;99.90;;;;;;4955731;28;20042;-78
2022/07/07 01:15:28;;;;;;;0.85;0.40;;;14.70;99.90;;;;;;4955825;28;20602;-77
2022/07/07 01:17:54;;;;;;;0.75;0.32;;;14.70;99.90;;;;;;4948761;28;20035;-77
2022/07/07 01:20:21;;;;;;;0.82;0.30;;;14.70;99.90;;;;;;4957849;28;20121;-77
2022/07/07 01:22:50;;;;;;;0.50;0.50;;;14.60;99.90;;;;;;4958536;28;20126;-78
2022/07/07 01:25:16;;;;;;;0.47;0.47;;;14.60;99.90;;;;;;4960030;28;20130;-77
2022/07/07 01:27:42;;;;;;;0.52;0.50;;;14.60;99.90;;;;;;4958911;28;20586;-77
2022/07/07 01:30:08;;;;;;;2.05;0.73;;;14.50;99.90;;;;;;4961169;28;20223;-77
2022/07/07 01:32:34;;;;;;;1.58;0.60;;;14.40;99.90;;;;;;4959758;28;20361;-77
2022/07/07 01:34:59;;;;;;;0.47;0.40;;;14.40;99.90;;;;;;4941853;28;20030;-77
2022/07/07 01:37:25;;;;;;;2.63;0.32;;;14.30;99.90;;;;;;4956665;28;20097;-77
2022/07/07 01:39:52;;;;;;;1.30;0.50;;;14.30;99.90;;;;;;4960026;28;20051;-77
2022/07/07 01:42:18;;;;;;;1.15;0.60;;;14.20;99.90;;;;;;4961465;28;20501;-77
2022/07/07 01:44:44;;;;;;;1.92;0.60;;;14.20;99.90;;;;;;4964482;28;20042;-77
2022/07/07 01:47:12;;;;;;;1.20;0.45;;;14.30;99.90;;;;;;4961955;28;20047;-77
2022/07/07 01:49:38;;;;;;;0.40;0.40;;;14.40;99.90;;;;;;4927500;28;20106;-78
2022/07/07 01:52:06;;;;;;;1.83;0.68;;;14.50;99.90;;;;;;4958218;28;20086;-77
2022/07/07 01:54:34;;;;;;;0.40;0.40;;;14.80;99.90;;;;;;4956654;28;20112;-77
2022/07/07 01:57:00;;;;;;;0.70;0.47;;;14.90;99.90;;;;;;4947810;28;20034;-77
2022/07/07 01:59:26;;;;;;;0.43;0.40;;;15.00;99.90;;;;;;4955772;28;20034;-77
2022/07/07 02:01:51;;;;;;;0.40;0.40;;;15.20;99.90;;;;;;4933007;28;20061;-76
2022/07/07 02:04:17;;;;;;;1.70;0.50;;;15.30;99.90;;;;;;4960078;28;20031;-77
2022/07/07 02:06:43;;;;;;;1.65;0.63;;;15.40;99.90;;;;;;4959888;28;20041;-77
2022/07/07 02:09:09;;;;;;;0.73;0.50;;;15.50;99.90;;;;;;4958767;28;20038;-77
2022/07/07 02:11:35;;;;;;;0.73;0.30;;;15.50;99.90;;;;;;4959337;28;20140;-77
2022/07/07 02:14:01;;;;;;;1.15;0.30;;;15.60;99.90;;;;;;4941689;28;20061;-77
2022/07/07 02:16:27;;;;;;;0.88;0.68;;;15.70;99.90;;;;;;4958260;28;20387;-77
2022/07/07 02:18:56;;;;;;;0.30;0.30;;;15.80;99.90;;;;;;4959551;28;20046;-77
2022/07/07 02:21:22;;;;;;;0.60;0.47;;;15.80;99.90;;;;;;4957627;28;20089;-77
2022/07/07 02:23:50;;;;;;;1.95;0.95;;;15.80;99.90;;;;;;4954905;28;20030;-77
2022/07/07 02:26:15;;;;;;;0.40;0.38;;;15.80;99.90;;;;;;4946437;28;20093;-77
2022/07/07 02:28:42;;;;;;;0.55;0.47;;;15.80;99.90;;;;;;4958141;28;20042;-77
2022/07/07 02:31:08;;;;;;;4.72;0.60;;;15.80;99.90;;;;;;4939617;28;20026;-77
2022/07/07 02:33:35;;;;;;;0.52;0.52;;;15.80;99.90;;;;;;4959884;28;20046;-77
2022/07/07 02:36:03;;;;;;;2.22;0.60;;;15.80;99.90;;;;;;4959453;28;20030;-77
2022/07/07 02:38:29;;;;;;;1.50;0.70;;;15.80;99.90;;;;;;4955503;28;20236;-77
2022/07/07 02:40:54;;;;;;;0.68;0.68;;;15.90;99.90;;;;;;4954493;28;20034;-77
2022/07/07 02:43:20;;;;;;;2.00;0.43;;;15.90;99.90;;;;;;4956905;28;20074;-77
2022/07/07 02:45:48;;;;;;;1.38;0.63;;;15.90;99.90;;;;;;4957956;28;20030;-78
2022/07/07 02:48:16;;;;;;;0.82;0.50;;;16.00;99.90;;;;;;4943716;28;20132;-76
2022/07/07 02:50:42;;;;;;;0.82;0.70;;;16.00;99.90;;;;;;4961339;28;20034;-77
2022/07/07 02:53:10;;;;;;;1.65;0.88;;;15.90;99.90;;;;;;4960188;28;20045;-76
2022/07/07 02:55:36;;;;;;;2.42;0.70;;;15.90;99.90;;;;;;4952690;28;20359;-77
2022/07/07 02:58:03;;;;;;;1.20;0.50;;;15.70;99.90;;;;;;4958862;28;20035;-77
2022/07/07 03:00:29;;;;;;;0.63;0.63;;;15.60;99.90;;;;;;4950324;28;20055;-77
2022/07/07 03:02:55;;;;;;;1.23;0.70;;;15.50;99.90;;;;;;4960782;28;20066;-77
2022/07/07 03:05:23;;;;;;;1.52;0.90;;;15.30;99.90;;;;;;4960507;28;20045;-77
2022/07/07 03:07:50;;;;;;;2.00;1.00;;;15.20;99.90;;;;;;4960803;28;20034;-77
2022/07/07 03:10:15;;;;;;;1.50;0.73;;;15.00;99.90;;;;;;4959810;28;20148;-77
2022/07/07 03:12:41;;;;;;;2.17;0.90;;;14.90;99.90;;;;;;4956374;28;20031;-77
2022/07/07 03:15:08;;;;;;;3.30;1.17;;;14.80;99.90;;;;;;4955026;28;20481;-77
2022/07/07 03:17:35;;;;;;;1.98;0.90;;;14.70;99.90;;;;;;4942131;28;20030;-76
2022/07/07 03:20:01;;;;;;;2.55;0.75;;;14.60;99.90;;;;;;4960735;28;20042;-77
2022/07/07 03:22:27;;;;;;;2.22;0.77;;;14.50;99.90;;;;;;4961298;28;20030;-77
2022/07/07 03:24:53;;;;;;;1.00;0.70;;;14.50;99.90;;;;;;4959811;28;20034;-77
2022/07/07 03:27:19;;;;;;;0.85;0.73;;;14.50;99.90;;;;;;4957716;28;20050;-77
2022/07/07 03:29:44;;;;;;;2.25;0.75;;;14.40;99.90;;;;;;4957865;28;20054;-76
2022/07/07 03:32:10;;;;;;;2.85;1.00;;;14.40;99.90;;;;;;4960534;28;20074;-77
2022/07/07 03:34:36;;;;;;;1.15;0.52;;;14.40;99.90;;;;;;4956754;28;20089;-77
2022/07/07 03:37:02;;;;;;;0.80;0.80;;;14.40;99.90;;;;;;4956096;28;20557;-78
2022/07/07 03:39:28;;;;;;;1.00;1.00;;;14.40;99.90;;;;;;4959071;28;20039;-77
2022/07/07 03:41:54;;;;;;;0.85;0.85;;;14.30;99.90;;;;;;4961305;28;20522;-77
2022/07/07 03:44:20;;;;;;;0.70;0.70;;;14.40;99.90;;;;;;4939601;28;20463;-77
2022/07/07 03:46:45;;;;;;;2.38;0.73;;;14.50;99.90;;;;;;4960166;28;20391;-77
2022/07/07 03:49:11;;;;;;;1.02;0.70;;;14.50;99.90;;;;;;4942025;28;20336;-77
2022/07/07 03:51:37;;;;;;;1.77;1.00;;;14.50;99.90;;;;;;4957288;28;20050;-77
2022/07/07 03:54:03;;;;;;;1.55;0.65;;;14.60;99.90;;;;;;4958507;28;20198;-77
2022/07/07 03:56:29;;;;;;;0.80;0.80;;;14.70;99.90;;;;;;4958610;28;20514;-77
2022/07/07 03:58:55;;;;;;;3.47;0.82;;;14.60;99.90;;;;;;4957961;28;20129;-77
2022/07/07 04:01:20;;;;;;;0.80;0.77;;;14.70;99.90;;;;;;4958537;28;20030;-77
2022/07/07 04:03:46;;;;;;;1.17;0.80;;;14.70;99.90;;;;;;4959323;28;20031;-77
2022/07/07 04:06:12;;;;;;;1.98;0.80;;;14.80;99.90;;;;;;4959217;28;20061;-76
2022/07/07 04:08:38;;;;;;;1.17;0.88;;;14.80;99.90;;;;;;4948117;28;20110;-77
2022/07/07 04:11:03;;;;;;;1.38;1.00;;;14.80;99.90;;;;;;4943981;28;20035;-77
2022/07/07 04:13:29;;;;;;;1.67;0.90;;;14.80;99.90;;;;;;4952244;28;20099;-76
2022/07/07 04:15:58;;;;;;;1.45;0.70;;;14.80;99.90;;;;;;4938444;28;20126;-76
2022/07/07 04:18:24;;;;;;;2.92;0.98;;;14.90;99.90;;;;;;4957342;28;20050;-77
2022/07/07 04:20:50;;;;;;;2.03;1.55;;;15.00;99.90;;;;;;4956341;28;20035;-77
2022/07/07 04:23:16;;;;;;;2.47;0.93;;;15.10;99.90;;;;;;4942214;28;20185;-77
2022/07/07 04:25:42;;;;;;;1.13;0.98;;;15.20;99.90;;;;;;4956992;28;20186;-77
2022/07/07 04:28:07;;;;;;;0.75;0.70;;;15.20;99.90;;;;;;4954247;28;20034;-77
2022/07/07 04:30:33;;;;;;;2.67;1.08;;;15.30;99.90;;;;;;4957865;28;20164;-77
2022/07/07 04:32:59;;;;;;;4.07;1.50;;;15.40;99.90;;;;;;4957830;28;20035;-77
2022/07/07 04:35:24;;;;;;;2.90;1.00;;;15.50;99.90;;;;;;4954733;28;20411;-77
2022/07/07 04:37:50;;;;;;;2.88;1.00;;;15.50;99.90;;;;;;4955416;28;20126;-77
2022/07/07 04:40:16;;;;;;;0.90;0.88;;;15.60;99.90;;;;;;4956351;28;20057;-77
2022/07/07 04:42:41;;;;;;;2.63;1.20;;;15.70;99.90;;;;;;4945369;28;20031;-77
2022/07/07 04:45:08;;;;;;;1.85;1.20;;;15.80;99.90;;;;;;4948804;28;20550;-77
2022/07/07 04:47:39;;;;;;;1.98;1.08;;;15.80;99.90;;;;;;4960131;28;20138;-76
2022/07/07 04:50:09;;;;;;;1.05;1.00;;;15.80;99.90;;;;;;4957315;28;20035;-77
2022/07/07 04:52:35;;;;;;;2.13;1.05;;;15.90;99.90;;;;;;4940482;29;20034;-76
2022/07/07 04:55:01;;;;;;;2.47;1.45;;;15.90;99.90;;;;;;4953262;28;20061;-77
2022/07/07 04:57:27;;;;;;;1.98;0.82;;;15.90;99.90;;;;;;4940042;28;20070;-77
2022/07/07 04:59:53;;;;;;;2.13;1.75;;;16.00;99.90;;;;;;4946988;28;20027;-77
2022/07/07 05:02:18;;;;;;;3.10;1.10;;;16.00;99.90;;;;;;4936610;28;20039;-76
2022/07/07 05:04:44;;;;;;;2.63;1.42;;;16.00;99.90;;;;;;4954132;28;20031;-78
2022/07/07 05:07:10;;;;;;;2.60;0.90;;;16.00;99.90;;;;;;4956068;28;20092;-77
2022/07/07 05:09:36;;;;;;;2.95;1.20;;;16.00;99.90;;;;;;4957722;28;20118;-77
2022/07/07 05:12:03;;;;;;;2.05;1.20;;;16.00;99.90;;;;;;4938047;28;20114;-77
2022/07/07 05:14:29;;;;;;;1.80;1.50;;;16.10;99.90;;;;;;4935834;28;20055;-77
2022/07/07 05:16:55;;;;;;;3.45;1.02;;;16.10;99.90;;;;;;4936782;28;20023;-78
2022/07/07 05:19:22;;;;;;;1.63;1.52;;;16.10;99.90;;;;;;4958969;28;20061;-77
2022/07/07 05:21:48;;;;;;;1.85;1.00;;;16.10;99.90;;;;;;4957705;28;20109;-77
2022/07/07 05:24:14;;;;;;;4.95;1.25;;;16.10;99.90;;;;;;4954695;28;20148;-77
2022/07/07 05:26:39;;;;;;;2.30;1.48;;;16.20;99.90;;;;;;4955747;28;20118;-76
2022/07/07 05:29:05;;;;;;;2.72;1.33;;;16.20;99.90;;;;;;4940504;29;20031;-77
2022/07/07 05:31:31;;;;;;;1.55;1.10;;;16.30;99.90;;;;;;4952301;28;20050;-77
2022/07/07 05:33:56;;;;;;;1.63;1.23;;;16.40;99.90;;;;;;4949504;28;20421;-77
2022/07/07 05:36:22;;;;;;;2.20;1.13;;;16.40;99.90;;;;;;4938655;28;20026;-77
2022/07/07 05:38:48;;;;;;;2.40;1.15;;;16.50;99.90;;;;;;4955248;28;20038;-77
2022/07/07 05:41:14;;;;;;;2.95;1.40;;;16.50;99.90;;;;;;4957612;28;20038;-77
2022/07/07 05:43:40;;;;;;;1.30;1.08;;;16.60;99.90;;;;;;4958041;28;20443;-77
2022/07/07 05:46:05;;;;;;;4.82;1.33;;;16.70;99.90;;;;;;4958739;28;20057;-77
2022/07/07 05:48:31;;;;;;;2.60;1.20;;;16.70;99.90;;;;;;4958619;28;20442;-77
2022/07/07 05:50:57;;;;;;;1.35;1.25;;;16.80;99.90;;;;;;4956893;28;20452;-77
2022/07/07 05:53:22;;;;;;;1.55;1.45;;;16.80;99.90;;;;;;4955195;28;20218;-77
2022/07/07 05:55:48;;;;;;;7.05;2.03;;;16.80;99.90;;;;;;4961040;28;20353;-77
2022/07/07 05:58:15;;;;;;;4.55;1.25;;;16.80;99.90;;;;;;4959712;28;20039;-77
2022/07/07 06:00:41;;;;;;;2.33;1.50;;;16.90;99.90;;;;;;4960091;28;20038;-77
2022/07/07 06:03:06;;;;;;;3.53;1.27;;;16.90;99.90;;;;;;4960863;28;20202;-77
2022/07/07 06:05:32;;;;;;;2.47;1.23;;;16.90;99.90;;;;;;4614907;28;10000331;-78
2022/07/07 06:07:58;;;;;;;1.40;1.02;;;16.90;99.90;;;;;;4958287;28;20030;-77
2022/07/07 06:10:24;;;;;;;3.35;1.30;;;17.00;99.90;;;;;;4952713;28;20770;-77
2022/07/07 06:12:51;;;;;;;2.28;1.20;;;17.00;99.90;;;;;;4958428;28;20463;-76
2022/07/07 06:15:20;;;;;;;1.27;1.02;;;17.00;99.90;;;;;;4938050;28;20027;-77
2022/07/07 06:17:46;;;;;;;3.58;1.38;;;17.10;99.90;;;;;;4960068;28;20125;-77
2022/07/07 06:20:12;;;;;;;2.15;1.20;;;17.20;99.90;;;;;;4958076;28;20053;-77
2022/07/07 06:22:38;;;;;;;6.50;1.55;;;17.20;99.90;;;;;;4955719;28;20353;-77
2022/07/07 06:25:04;;;;;;;2.85;1.13;;;17.40;99.90;;;;;;4943888;28;20568;-78
2022/07/07 06:27:30;;;;;;;4.97;1.38;;;17.40;99.90;;;;;;4947153;28;20035;-77
2022/07/07 06:29:57;;;;;;;2.15;1.20;;;17.50;99.90;;;;;;4954204;28;20082;-77
2022/07/07 06:32:22;;;;;;;5.45;0.90;;;17.60;99.90;;;;;;4954222;28;20117;-77
2022/07/07 06:34:48;;;;;;;3.75;1.60;;;17.60;99.90;;;;;;4950041;28;20137;-78
2022/07/07 06:37:14;;;;;;;5.88;2.05;;;17.70;99.90;;;;;;4956029;28;20051;-77
2022/07/07 06:39:40;;;;;;;3.88;1.52;;;17.70;99.90;;;;;;4952587;28;20363;-77
2022/07/07 06:42:05;;;;;;;6.72;3.47;;;17.80;99.90;;;;;;4954570;28;20273;-77
2022/07/07 06:44:32;;;;;;;1.73;1.50;;;17.90;99.90;;;;;;4956513;28;20074;-77
2022/07/07 06:46:58;;;;;;;0.70;0.70;;;18.00;99.90;;;;;;4936750;28;20444;-78
2022/07/07 06:49:28;;;;;;;1.67;1.00;;;18.00;99.90;;;;;;4937277;29;20054;-77
2022/07/07 06:51:55;;;;;;;5.00;0.80;;;18.00;99.90;;;;;;4932955;28;20023;-78
2022/07/07 06:54:21;;;;;;;1.75;0.88;;;18.00;99.90;;;;;;4926245;28;20043;-78
2022/07/07 06:56:47;;;;;;;1.50;0.73;;;18.00;99.90;;;;;;4937026;28;20031;-78
2022/07/07 06:59:13;;;;;;;4.13;1.25;;;18.10;99.90;;;;;;4931012;28;20463;-78
2022/07/07 07:01:39;;;;;;;1.70;0.70;;;18.10;99.90;;;;;;4926370;28;20106;-78
2022/07/07 07:04:07;;;;;;;1.67;0.80;;;18.20;99.90;;;;;;4925268;28;20027;-78
2022/07/07 07:06:33;;;;;;;1.02;0.52;;;18.20;99.90;;;;;;4939396;28;20054;-78
2022/07/07 07:08:59;;;;;;;2.70;0.77;;;18.40;99.90;;;;;;4931788;29;20594;-78
2022/07/07 07:11:26;;;;;;;1.38;0.70;;;18.40;99.90;;;;;;4936347;28;20525;-76
2022/07/07 07:13:51;;;;;;;1.02;0.70;;;18.30;99.90;;;;;;4935819;29;20039;-80
2022/07/07 07:16:18;;;;;;;1.35;0.70;;;18.30;99.90;;;;;;4939574;28;20419;-78
2022/07/07 07:18:44;;;;;;;1.52;0.88;;;18.20;99.90;;;;;;4941947;29;20115;-78
2022/07/07 07:21:11;;;;;;;1.88;0.70;;;18.20;99.90;;;;;;4934492;29;20077;-79
2022/07/07 07:23:38;;;;;;;8.63;1.50;;;18.20;99.90;;;;;;4934727;28;20027;-79
2022/07/07 07:26:08;;;;;;;7.72;1.85;;;18.30;99.90;;;;;;4935759;28;20383;-80
2022/07/07 07:28:34;;;;;;;2.88;1.90;;;18.30;99.90;;;;;;4930173;28;20050;-78
2022/07/07 07:31:01;;;;;;;4.47;2.40;;;18.40;99.90;;;;;;4930577;28;20031;-77
2022/07/07 07:33:28;;;;;;;11.68;4.38;;;18.40;99.90;;;;;;4937551;28;20398;-80
2022/07/07 07:35:54;;;;;;;3.95;2.35;;;18.50;99.90;;;;;;4934634;29;20027;-77
2022/07/07 07:38:20;;;;;;;3.25;1.33;;;18.50;99.90;;;;;;4936174;28;20375;-79
2022/07/07 07:40:46;;;;;;;6.57;2.10;;;18.60;99.90;;;;;;4936837;28;20027;-80
2022/07/07 07:43:11;;;;;;;6.25;1.70;;;18.70;99.90;;;;;;4927845;28;20105;-76
2022/07/07 07:45:38;;;;;;;7.53;1.63;;;18.80;99.90;;;;;;4926958;28;20027;-80
2022/07/07 07:48:04;;;;;;;3.28;1.60;;;19.00;99.90;;;;;;4944225;28;20051;-80
2022/07/07 07:50:31;;;;;;;1.45;1.00;;;19.10;99.90;;;;;;4945420;28;20459;-79
2022/07/07 07:52:58;;;;;;;2.92;1.00;;;19.20;99.90;;;;;;4942293;28;20042;-80
2022/07/07 07:55:24;;;;;;;4.15;1.38;;;19.20;99.90;;;;;;4940698;28;21565;-81
2022/07/07 07:57:51;;;;;;;3.78;1.38;;;19.30;99.90;;;;;;4929608;28;20038;-81
2022/07/07 08:00:20;;;;;;;6.63;1.88;;;19.30;99.90;;;;;;4927491;28;20297;-81
2022/07/07 08:02:47;;;;;;;4.90;1.60;;;19.40;99.90;;;;;;4952480;28;20042;-80
2022/07/07 08:05:14;;;;;;;6.00;1.60;;;19.40;99.90;;;;;;4934615;28;20106;-78
2022/07/07 08:07:41;;;;;;;6.95;2.00;;;19.60;99.90;;;;;;4928428;28;20414;-76
2022/07/07 08:10:08;;;;;;;5.25;1.85;;;19.60;99.90;;;;;;4939735;28;20056;-75
2022/07/07 08:12:34;;;;;;;4.93;1.92;;;19.70;99.90;;;;;;4945062;28;20317;-81
2022/07/07 08:15:00;;;;;;;6.07;2.20;;;20.00;99.90;;;;;;4945444;28;20049;-78
2022/07/07 08:17:26;;;;;;;12.40;1.55;;;20.10;99.90;;;;;;4950081;28;20366;-81
2022/07/07 08:19:52;;;;;;;7.40;2.10;;;20.40;99.90;;;;;;4951754;28;20069;-78
2022/07/07 08:22:18;;;;;;;6.82;1.33;;;20.30;99.90;;;;;;4962036;28;20034;-78
2022/07/07 08:24:44;;;;;;;2.63;0.90;;;20.40;99.90;;;;;;4956610;28;20207;-78
2022/07/07 08:27:10;;;;;;;15.65;1.73;;;20.40;99.90;;;;;;4953741;28;20553;-78
2022/07/07 08:29:38;;;;;;;5.55;1.20;;;20.50;99.90;;;;;;4950306;28;20027;-78
2022/07/07 08:32:07;;;;;;;9.88;1.85;;;20.50;99.90;;;;;;4946824;28;20136;-78
2022/07/07 08:34:33;;;;;;;7.70;1.23;;;20.40;99.90;;;;;;4948295;28;20050;-78
2022/07/07 08:36:58;;;;;;;5.57;1.20;;;20.40;99.90;;;;;;4944993;28;20181;-78
2022/07/07 08:39:24;;;;;;;4.90;0.93;;;20.40;99.90;;;;;;4953570;28;20507;-78
2022/07/07 08:41:50;;;;;;;6.32;1.02;;;20.40;99.90;;;;;;4934337;28;20136;-77
2022/07/07 08:44:18;;;;;;;1.73;0.60;;;20.30;99.90;;;;;;4943859;28;20145;-78
2022/07/07 08:46:44;;;;;;;4.40;1.10;;;20.30;99.90;;;;;;4937981;28;20413;-79
2022/07/07 08:49:10;;;;;;;4.93;1.20;;;20.50;99.90;;;;;;4944528;28;20045;-78
2022/07/07 08:51:43;;;;;;;1.75;1.13;;;20.80;99.90;;;;;;4952722;28;20038;-78
2022/07/07 08:54:10;;;;;;;2.88;1.00;;;21.00;99.90;;;;;;4948961;28;20100;-78
2022/07/07 08:56:40;;;;;;;3.88;0.90;;;21.20;99.90;;;;;;4951207;28;20035;-78
2022/07/07 08:59:07;;;;;;;4.15;0.82;;;21.30;99.90;;;;;;4944658;28;20038;-78
2022/07/07 09:01:34;;;;;;;3.03;1.15;;;21.20;99.90;;;;;;4945798;28;20227;-79
2022/07/07 09:04:01;;;;;;;2.55;0.98;;;21.10;99.90;;;;;;4951163;28;20442;-78
2022/07/07 09:06:27;;;;;;;3.40;1.23;;;21.10;99.90;;;;;;4926240;28;20031;-78
2022/07/07 09:08:54;;;;;;;1.92;0.88;;;21.00;99.90;;;;;;4940763;28;20303;-79
2022/07/07 09:11:31;;;;;;;3.45;1.05;;;20.80;99.90;;;;;;4937063;28;20556;-78
2022/07/07 09:14:10;;;;;;;2.55;1.02;;;20.50;99.90;;;;;;4945990;28;20064;-79
2022/07/07 09:16:37;;;;;;;3.92;1.30;;;20.40;99.90;;;;;;4949494;28;20450;-77
2022/07/07 09:19:06;;;;;;;5.53;1.05;;;20.40;99.90;;;;;;4952547;28;20320;-78
2022/07/07 09:21:33;;;;;;;8.70;1.00;;;20.40;99.90;;;;;;4924752;28;20031;-80
2022/07/07 09:24:01;;;;;;;4.80;1.20;;;20.40;99.90;;;;;;4597536;28;10000161;-78
2022/07/07 09:26:38;;;;;;;0.93;0.85;;;20.30;99.90;;;;;;4947056;28;20038;-78
2022/07/07 09:29:05;;;;;;;7.18;1.30;;;20.40;99.90;;;;;;4930543;28;20035;-78
2022/07/07 09:31:52;;;;;;;10.35;1.70;;;20.40;99.90;;;;;;4950351;28;20093;-78
2022/07/07 09:34:19;;;;;;;6.07;1.10;;;20.60;99.90;;;;;;4948587;28;20053;-77
2022/07/07 09:39:46;;;;;;;4.00;1.10;;;21.20;99.90;;;;;;4954325;28;20818;-78
2022/07/07 09:42:18;;;;;;;2.75;1.08;;;21.30;99.90;;;;;;4931930;29;20516;-78
2022/07/07 09:44:45;;;;;;;3.28;1.10;;;21.30;99.90;;;;;;4947255;28;20197;-78
2022/07/07 09:47:11;;;;;;;2.60;1.02;;;21.00;99.90;;;;;;4939122;28;20057;-78
2022/07/07 09:49:42;;;;;;;2.70;1.10;;;20.90;99.90;;;;;;4948232;28;20026;-78
2022/07/07 09:52:15;;;;;;;2.95;0.80;;;20.70;99.90;;;;;;4950693;28;20401;-78
2022/07/07 09:54:49;;;;;;;2.08;1.25;;;20.60;99.90;;;;;;4949253;28;20502;-78
2022/07/07 09:57:16;;;;;;;1.95;0.90;;;20.70;99.90;;;;;;4930057;28;20035;-78
2022/07/07 09:59:42;;;;;;;2.72;1.10;;;20.90;99.90;;;;;;4954549;28;20042;-78
2022/07/07 10:02:25;;;;;;;5.88;1.08;;;21.00;99.90;;;;;;4957791;28;20031;-78
2022/07/07 10:04:56;;;;;;;1.23;0.80;;;21.40;99.90;;;;;;4935020;29;20027;-78
2022/07/07 10:07:24;;;;;;;5.40;1.20;;;21.70;99.90;;;;;;4958709;28;20053;-78
2022/07/07 10:10:12;;;;;;;2.65;0.98;;;22.10;99.90;;;;;;4960752;28;20027;-78
2022/07/07 10:12:49;;;;;;;1.90;1.10;;;22.10;99.90;;;;;;4934228;28;20039;-78
2022/07/07 10:15:15;;;;;;;2.20;0.90;;;22.30;99.90;;;;;;4951579;28;20074;-78
2022/07/07 10:17:42;;;;;;;5.05;1.38;;;22.30;99.90;;;;;;4610238;28;10000297;-78
2022/07/07 10:20:09;;;;;;;2.22;1.17;;;22.20;99.90;;;;;;4952220;28;20038;-78
2022/07/07 10:22:36;;;;;;;3.85;1.10;;;21.90;99.90;;;;;;4948070;28;20195;-77
2022/07/07 10:25:06;;;;;;;4.22;1.05;;;21.80;99.90;;;;;;4947084;28;20558;-78
2022/07/07 10:27:33;;;;;;;4.43;1.67;;;21.70;99.90;;;;;;4956354;28;20466;-78
2022/07/07 10:30:01;;;;;;;6.07;1.30;;;21.90;99.90;;;;;;4957484;28;21032;-77
2022/07/07 10:32:31;;;;;;;1.73;1.10;;;22.30;99.90;;;;;;4941289;28;20130;-78
2022/07/07 10:35:04;;;;;;;3.40;1.30;;;23.00;99.90;;;;;;4938830;28;20388;-78
2022/07/07 10:37:47;;;;;;;3.67;1.23;;;23.30;99.90;;;;;;4957658;28;20050;-78
2022/07/07 10:40:29;;;;;;;2.35;1.23;;;23.20;99.90;;;;;;4942993;28;20035;-78
2022/07/07 10:43:21;;;;;;;2.25;1.35;;;23.00;99.90;;;;;;4940076;28;20460;-78
2022/07/07 10:45:49;;;;;;;2.53;1.23;;;22.60;99.90;;;;;;4960647;28;20106;-78
2022/07/07 10:48:43;;;;;;;2.13;1.20;;;22.40;99.90;;;;;;4954725;28;20058;-78
2022/07/07 10:51:18;;;;;;;2.55;1.20;;;22.20;99.90;;;;;;4955901;28;20034;-78
2022/07/07 10:53:56;;;;;;;3.15;1.30;;;21.90;99.90;;;;;;4958849;28;20351;-77
2022/07/07 10:56:23;;;;;;;1.90;1.20;;;21.90;99.90;;;;;;4949693;28;20275;-78
2022/07/07 10:58:59;;;;;;;4.60;1.45;;;22.10;99.90;;;;;;4959903;28;20081;-78
2022/07/07 11:01:30;;;;;;;4.47;1.38;;;22.00;99.90;;;;;;4962479;28;20543;-77
2022/07/07 11:03:56;;;;;;;2.35;1.25;;;22.20;99.90;;;;;;4961609;28;20090;-77
2022/07/07 11:06:22;;;;;;;0.90;0.77;;;22.20;99.90;;;;;;4956587;28;20150;-78
2022/07/07 11:09:04;;;;;;;1.25;1.00;;;22.20;99.90;;;;;;4958972;28;20109;-78
2022/07/07 11:11:30;;;;;;;3.88;0.73;;;22.30;99.90;;;;;;4952593;28;20038;-78
2022/07/07 11:14:10;;;;;;;1.30;0.93;;;22.50;99.90;;;;;;4952566;28;20526;-78
2022/07/07 11:16:39;;;;;;;3.05;1.13;;;22.80;99.90;;;;;;4955489;28;20533;-78
2022/07/07 11:19:06;;;;;;;9.43;1.60;;;23.00;99.90;;;;;;4952690;28;20425;-79
2022/07/07 11:21:36;;;;;;;11.27;1.55;;;23.40;99.90;;;;;;4957338;28;20027;-78
2022/07/07 11:24:12;;;;;;;10.15;1.27;;;23.70;99.60;;;;;;4948396;28;20078;-78
2022/07/07 11:26:38;;;;;;;6.90;1.20;;;23.50;99.90;;;;;;4933875;28;20034;-79
2022/07/07 11:29:04;;;;;;;12.35;2.20;;;23.40;99.90;;;;;;4955951;28;20096;-79
2022/07/07 11:31:30;;;;;;;8.63;1.73;;;23.30;99.90;;;;;;4954031;28;20035;-79
2022/07/07 11:33:57;;;;;;;3.40;1.23;;;22.90;99.90;;;;;;4948985;28;20062;-79
2022/07/07 11:36:25;;;;;;;2.88;1.05;;;22.60;99.90;;;;;;4958781;28;20041;-77
2022/07/07 11:38:57;;;;;;;1.35;1.00;;;22.30;99.90;;;;;;4955274;28;20037;-79
2022/07/07 11:41:44;;;;;;;4.70;0.90;;;22.00;99.90;;;;;;4947987;28;20486;-78
2022/07/07 11:44:20;;;;;;;4.80;0.80;;;21.80;99.90;;;;;;4954602;28;20027;-78
2022/07/07 11:46:52;;;;;;;8.95;2.13;;;21.80;99.90;;;;;;4956232;28;20053;-78
2022/07/07 11:49:20;;;;;;;2.15;1.20;;;21.50;99.90;;;;;;4951137;28;20031;-78
2022/07/07 11:51:46;;;;;;;2.20;0.90;;;21.50;99.90;;;;;;4935819;28;20486;-79
2022/07/07 11:54:13;;;;;;;2.75;0.80;;;21.60;99.90;;;;;;4938623;28;21685;-79
2022/07/07 11:56:39;;;;;;;2.72;1.00;;;21.80;99.90;;;;;;4955626;28;20453;-78
2022/07/07 11:59:07;;;;;;;4.30;1.00;;;22.00;99.90;;;;;;4932634;28;20639;-78
2022/07/07 12:01:38;;;;;;;2.00;1.05;;;22.40;99.90;;;;;;4939516;28;20394;-78
2022/07/07 12:04:14;;;;;;;3.53;0.70;;;23.00;99.90;;;;;;4953985;28;20114;-78
2022/07/07 12:06:40;;;;;;;1.58;1.10;;;23.50;99.90;;;;;;4948428;28;20081;-78
2022/07/07 12:09:07;;;;;;;1.10;0.68;;;24.00;97.00;;;;;;4951243;28;20181;-79
2022/07/07 12:11:38;;;;;;;4.45;1.08;;;23.90;95.80;;;;;;4960515;28;20501;-79
2022/07/07 12:14:12;;;;;;;2.22;0.75;;;23.80;97.80;;;;;;4958749;28;20039;-78
2022/07/07 12:16:49;;;;;;;3.10;1.05;;;23.60;99.90;;;;;;4952999;28;20106;-78
2022/07/07 12:19:16;;;;;;;2.45;0.93;;;23.40;99.90;;;;;;4931054;28;20034;-79
2022/07/07 12:21:44;;;;;;;1.25;0.55;;;23.30;99.70;;;;;;4597604;28;10000306;-79
2022/07/07 12:24:13;;;;;;;0.70;0.65;;;23.20;99.90;;;;;;4943069;28;20129;-78
2022/07/07 12:26:49;;;;;;;7.43;0.95;;;23.20;97.90;;;;;;4945668;28;20310;-79
2022/07/07 12:29:19;;;;;;;1.00;0.60;;;23.10;99.80;;;;;;4950571;28;20168;-78
2022/07/07 12:31:46;;;;;;;1.58;0.70;;;22.90;99.90;;;;;;4937264;28;20298;-79
2022/07/07 12:34:14;;;;;;;1.35;0.77;;;22.70;99.90;;;;;;4929938;28;20183;-79
2022/07/07 12:36:41;;;;;;;1.05;0.63;;;22.40;99.90;;;;;;4951962;28;20878;-79
2022/07/07 12:39:08;;;;;;;1.92;0.70;;;22.30;99.90;;;;;;4949167;28;20470;-79
2022/07/07 12:41:36;;;;;;;1.92;0.85;;;22.10;99.90;;;;;;4948785;28;20066;-79
2022/07/07 12:44:22;;;;;;;4.18;0.90;;;22.20;99.90;;;;;;4949718;28;20391;-79
2022/07/07 12:46:48;;;;;;;2.50;0.80;;;22.40;99.90;;;;;;4951673;28;20108;-79
2022/07/07 12:49:14;;;;;;;2.08;0.80;;;22.70;99.90;;;;;;4950490;28;20043;-79
2022/07/07 12:51:44;;;;;;;2.20;0.60;;;23.30;99.00;;;;;;4948452;28;20517;-79